Time;durP1;ratioP1;P1;durP2;ratioP2;P2;SDS_P1;SDS_P2;PMS_P1;PMS_P2;Temp;Humidity;BMP_temperature;BMP_pressure;BME280_temperature;BME280_humidity;BME280_pressure;Samples;Min_cycle;Max_cycle;Signal;HPM_P1;HPM_P2
2022/03/04 06:26:13;;;;;;;;;;;;;;;5.77;100.00;98034.00;4995506;24;19977;-64
2022/03/04 06:28:41;;;;;;;;;;;;;;;5.87;100.00;98050.03;4829297;29;19959;-64
2022/03/04 06:31:08;;;;;;;;;;;;;;;5.95;100.00;98045.41;4828961;29;19971;-63
2022/03/04 06:33:37;;;;;;;;;;;;;;;5.90;100.00;98051.28;4827880;29;19958;-63
2022/03/04 06:36:06;;;;;;;;;;;;;;;6.04;100.00;98050.69;4828879;29;19961;-63
2022/03/04 06:38:34;;;;;;;;;;;;;;;6.13;100.00;98054.00;4828538;29;19980;-64
2022/03/04 06:41:03;;;;;;;;;;;;;;;6.35;100.00;98061.44;4828717;29;19954;-63
2022/03/04 06:43:31;;;;;;;;;;;;;;;6.31;100.00;98058.63;4828477;29;19953;-63
2022/03/04 06:45:59;;;;;;;;;;;;;;;6.41;100.00;98059.94;4835145;29;19956;-65
2022/03/04 06:48:27;;;;;;;;;;;;;;;6.60;100.00;98063.38;4831885;29;20403;-65
2022/03/04 06:50:55;;;;;;;;;;;;;;;6.73;100.00;98063.13;4827429;29;19963;-64
2022/03/04 06:53:22;;;;;;;;;;;;;;;6.85;100.00;98080.34;4827519;29;19966;-64
2022/03/04 06:55:50;;;;;;;;;;;;;;;7.05;100.00;98069.88;4827522;29;19965;-64
2022/03/04 06:58:17;;;;;;;;;;;;;;;7.49;100.00;98067.94;4827188;29;19974;-65
2022/03/04 07:00:45;;;;;;;;;;;;;;;8.08;100.00;98078.00;4826901;29;20459;-65
2022/03/04 07:03:12;;;;;;;;;;;;;;;8.88;100.00;98068.50;4827326;29;19960;-65
2022/03/04 07:05:40;;;;;;;;;;;;;;;9.62;97.03;98087.44;4826810;29;20260;-66
2022/03/04 07:08:11;;;;;;;;;;;;;;;10.57;89.88;98081.84;4827202;29;19955;-67
2022/03/04 07:10:39;;;;;;;;;;;;;;;11.41;82.35;98077.94;4827342;29;19955;-66
2022/03/04 07:13:06;;;;;;;;;;;;;;;12.15;73.30;98073.81;4827755;29;19948;-67
2022/03/04 07:15:34;;;;;;;;;;;;;;;13.06;64.77;98080.50;4827719;29;19954;-68
2022/03/04 07:18:02;;;;;;;;;;;;;;;14.12;58.31;98081.78;4826727;29;19972;-65
2022/03/04 07:20:29;;;;;;;;;;;;;;;14.74;53.53;98086.75;4827294;29;19948;-64
2022/03/04 07:22:57;;;;;;;;;;;;;;;15.42;53.03;98089.81;4827029;29;19962;-64
2022/03/04 07:25:24;;;;;;;;;;;;;;;16.61;49.42;98091.03;4823486;29;19973;-65
2022/03/04 07:27:52;;;;;;;;;;;;;;;17.32;43.60;98102.00;4815375;29;19959;-65
2022/03/04 07:30:20;;;;;;;;;;;;;;;18.00;42.05;98101.56;4809430;29;19946;-65
2022/03/04 07:32:49;;;;;;;;;;;;;;;18.85;40.00;98105.22;4820029;29;19958;-65
2022/03/04 07:35:16;;;;;;;;;;;;;;;19.62;38.15;98104.47;4818828;29;19951;-65
2022/03/04 07:37:43;;;;;;;;;;;;;;;20.17;36.58;98099.84;4822728;29;19954;-65
2022/03/04 07:40:13;;;;;;;;;;;;;;;20.68;35.23;98108.75;4826402;29;19952;-65
2022/03/04 07:42:41;;;;;;;;;;;;;;;20.12;36.35;98105.34;4827051;29;19955;-66
2022/03/04 07:45:10;;;;;;;;;;;;;;;19.53;36.89;98101.56;4826281;29;20372;-65
2022/03/04 07:47:38;;;;;;;;;;;;;;;18.93;38.50;98102.94;4825321;29;20452;-74
2022/03/04 07:50:07;;;;;;;;;;;;;;;18.17;40.52;98107.91;4792261;29;20361;-66
2022/03/04 07:52:35;;;;;;;;;;;;;;;17.48;43.77;98120.94;4816683;29;19982;-65
2022/03/04 07:55:05;;;;;;;;;;;;;;;16.84;45.57;98111.41;4824420;29;20259;-65
2022/03/04 07:57:32;;;;;;;;;;;;;;;16.57;46.71;98125.03;4826383;29;19957;-66
2022/03/04 08:00:00;;;;;;;;;;;;;;;16.42;47.75;98126.59;4826496;29;19973;-66
2022/03/04 08:02:27;;;;;;;;;;;;;;;16.10;49.63;98118.91;4826613;29;19947;-65
2022/03/04 08:04:54;;;;;;;;;;;;;;;15.81;52.07;98123.59;4825930;29;19984;-65
2022/03/04 08:07:21;;;;;;;;;;;;;;;15.59;53.67;98123.28;4826194;29;19958;-65
2022/03/04 08:09:49;;;;;;;;;;;;;;;15.27;55.71;98120.31;4825498;29;19956;-65
2022/03/04 08:12:16;;;;;;;;;;;;;;;15.11;57.09;98117.41;4826355;29;20424;-65
2022/03/04 08:14:44;;;;;;;;;;;;;;;14.80;57.50;98116.00;4826390;29;20256;-65
2022/03/04 08:17:11;;;;;;;;;;;;;;;14.34;60.39;98123.25;4826008;29;19950;-65
2022/03/04 08:19:39;;;;;;;;;;;;;;;14.12;62.66;98123.97;4826400;29;19964;-65
2022/03/04 08:22:08;;;;;;;;;;;;;;;13.54;65.73;98114.00;4826150;29;19953;-65
2022/03/04 08:24:52;;;;;;;;;;;;;;;12.80;73.74;98112.84;4825277;29;19971;-65
2022/03/04 08:27:21;;;;;;;;;;;;;;;12.60;74.20;98117.44;4825599;29;19956;-65
2022/03/04 08:29:49;;;;;;;;;;;;;;;12.02;81.59;98121.16;4825578;29;19982;-65
2022/03/04 08:32:16;;;;;;;;;;;;;;;12.56;76.26;98125.13;4825916;29;19958;-65
2022/03/04 08:34:44;;;;;;;;;;;;;;;12.12;78.84;98125.91;4825871;29;19964;-65
2022/03/04 08:37:11;;;;;;;;;;;;;;;12.00;76.86;98122.78;4825665;29;19964;-65
2022/03/04 08:39:38;;;;;;;;;;;;;;;12.29;81.14;98124.97;4825763;29;19974;-65
2022/03/04 08:42:07;;;;;;;;;;;;;;;12.49;77.37;98123.16;4825333;29;19958;-65
2022/03/04 08:44:34;;;;;;;;;;;;;;;12.57;77.50;98125.91;4825819;29;19960;-65
2022/03/04 08:47:03;;;;;;;;;;;;;;;11.93;81.44;98125.66;4825971;29;19954;-65
2022/03/04 08:49:31;;;;;;;;;;;;;;;12.13;73.26;98133.09;4826055;29;20332;-65
2022/03/04 08:51:59;;;;;;;;;;;;;;;12.06;70.15;98133.13;4809835;29;20332;-67
2022/03/04 08:54:26;;;;;;;;;;;;;;;11.76;74.62;98132.97;4825341;29;19958;-67
2022/03/04 08:56:54;;;;;;;;;;;;;;;11.36;76.03;98127.94;4825114;29;19961;-67
2022/03/04 08:59:22;;;;;;;;;;;;;;;11.58;75.18;98140.63;4824494;29;20001;-68
2022/03/04 09:01:49;;;;;;;;;;;;;;;11.10;81.02;98141.22;4807554;29;19953;-68
2022/03/04 09:04:17;;;;;;;;;;;;;;;10.83;85.59;98128.91;4814071;29;19973;-68
2022/03/04 09:06:45;;;;;;;;;;;;;;;11.03;89.14;98132.88;4825533;29;19953;-67
2022/03/04 09:09:13;;;;;;;;;;;;;;;11.17;91.69;98137.63;4825111;29;19960;-67
2022/03/04 09:11:41;;;;;;;;;;;;;;;11.37;94.92;98146.34;4825684;29;19959;-67
2022/03/04 09:14:08;;;;;;;;;;;;;;;11.17;95.74;98143.22;4825549;29;19949;-67
2022/03/04 09:16:36;;;;;;;;;;;;;;;11.14;85.64;98133.63;4826657;29;19957;-67
2022/03/04 09:19:04;;;;;;;;;;;;;;;11.43;85.27;98134.31;4824322;29;19969;-67
2022/03/04 09:21:31;;;;;;;;;;;;;;;11.33;87.48;98142.75;4825906;29;19957;-67
2022/03/04 09:23:59;;;;;;;;;;;;;;;11.11;94.19;98133.63;4825129;29;19951;-67
2022/03/04 09:26:27;;;;;;;;;;;;;;;11.23;87.08;98136.78;4824629;29;19978;-67
2022/03/04 09:28:54;;;;;;;;;;;;;;;11.03;89.18;98134.84;4825574;29;19953;-67
2022/03/04 09:31:22;;;;;;;;;;;;;;;10.82;85.89;98144.13;4825270;29;19959;-67
2022/03/04 09:33:49;;;;;;;;;;;;;;;10.41;88.01;98143.00;4825332;29;19958;-67
2022/03/04 09:36:16;;;;;;;;;;;;;;;10.40;81.68;98136.59;4825452;29;20363;-67
2022/03/04 09:38:44;;;;;;;;;;;;;;;10.20;87.12;98135.41;4826171;29;19956;-67
2022/03/04 09:41:12;;;;;;;;;;;;;;;10.74;83.58;98131.34;4828202;29;20360;-67
2022/03/04 09:43:39;;;;;;;;;;;;;;;11.02;82.80;98133.28;4828531;29;20365;-66
2022/03/04 09:46:07;;;;;;;;;;;;;;;10.91;82.15;98138.91;4826916;29;19967;-66
2022/03/04 09:48:40;;;;;;;;;;;;;;;10.61;85.66;98134.97;4825260;29;19955;-66
2022/03/04 09:51:07;;;;;;;;;;;;;;;10.58;87.11;98139.38;4828269;29;19954;-66
2022/03/04 09:53:35;;;;;;;;;;;;;;;10.08;90.00;98132.16;4827574;29;20384;-67
2022/03/04 09:56:03;;;;;;;;;;;;;;;10.59;89.08;98134.59;4828258;29;19964;-66
2022/03/04 09:58:32;;;;;;;;;;;;;;;10.28;85.49;98130.63;4827686;29;19950;-66
2022/03/04 10:01:01;;;;;;;;;;;;;;;10.76;84.08;98128.94;4828472;29;19970;-67
2022/03/04 10:03:28;;;;;;;;;;;;;;;10.49;84.78;98136.19;4812454;29;19955;-66
2022/03/04 10:05:56;;;;;;;;;;;;;;;10.36;87.31;98138.59;4826013;29;19947;-66
2022/03/04 10:08:24;;;;;;;;;;;;;;;10.47;85.57;98122.63;4827565;29;19967;-67
2022/03/04 10:10:52;;;;;;;;;;;;;;;10.15;80.35;98132.22;4828212;29;20714;-66
2022/03/04 10:13:38;;;;;;;;;;;;;;;10.60;79.85;98125.78;4828171;29;19952;-66
2022/03/04 10:16:05;;;;;;;;;;;;;;;10.73;78.83;98132.56;4828092;29;19959;-66
2022/03/04 10:18:35;;;;;;;;;;;;;;;10.54;70.63;98138.56;4827242;29;20450;-66
2022/03/04 10:21:02;;;;;;;;;;;;;;;10.29;80.88;98123.84;4828241;29;19970;-67
2022/03/04 10:23:30;;;;;;;;;;;;;;;10.67;86.54;98131.38;4827753;29;19958;-67
2022/03/04 10:26:00;;;;;;;;;;;;;;;10.75;79.23;98130.16;4827868;29;19973;-66
2022/03/04 10:28:29;;;;;;;;;;;;;;;10.57;76.63;98121.00;4826950;29;19962;-67
2022/03/04 10:30:58;;;;;;;;;;;;;;;10.61;81.40;98133.00;4827349;29;20345;-67
2022/03/04 10:33:32;;;;;;;;;;;;;;;10.86;73.57;98124.53;4827816;29;20285;-67
2022/03/04 10:36:18;;;;;;;;;;;;;;;10.62;75.15;98131.78;4822962;29;20375;-67
2022/03/04 10:39:05;;;;;;;;;;;;;;;10.60;74.17;98128.59;4823175;29;19982;-67
2022/03/04 10:41:35;;;;;;;;;;;;;;;10.72;68.82;98135.75;4811184;29;19957;-67
2022/03/04 10:44:24;;;;;;;;;;;;;;;10.59;76.05;98131.78;4827261;29;19954;-67
2022/03/04 10:46:58;;;;;;;;;;;;;;;10.69;83.86;98130.94;4819969;29;19967;-67
2022/03/04 10:49:26;;;;;;;;;;;;;;;11.02;80.30;98125.69;4808230;29;19983;-67
2022/03/04 10:52:06;;;;;;;;;;;;;;;11.14;70.67;98125.25;4809494;29;19960;-67
2022/03/04 10:54:34;;;;;;;;;;;;;;;10.78;73.84;98118.16;4810057;29;19976;-66
2022/03/04 10:57:03;;;;;;;;;;;;;;;10.93;72.96;98116.91;4826735;29;19949;-67
2022/03/04 10:59:30;;;;;;;;;;;;;;;10.53;68.20;98114.63;4826738;29;19969;-67
2022/03/04 11:02:00;;;;;;;;;;;;;;;10.63;67.71;98119.41;4826849;29;20351;-67
2022/03/04 11:04:27;;;;;;;;;;;;;;;10.50;72.31;98115.41;4827668;29;19959;-67
2022/03/04 11:06:57;;;;;;;;;;;;;;;10.45;70.82;98110.22;4826939;29;19953;-67
2022/03/04 11:09:24;;;;;;;;;;;;;;;10.42;71.65;98103.44;4819155;29;19963;-67
2022/03/04 11:11:53;;;;;;;;;;;;;;;10.68;73.83;98115.38;4819076;29;19958;-67
2022/03/04 11:14:21;;;;;;;;;;;;;;;10.58;75.35;98100.25;4827226;29;19957;-67
2022/03/04 11:16:49;;;;;;;;;;;;;;;10.76;74.12;98106.56;4826839;29;20260;-67
2022/03/04 11:19:17;;;;;;;;;;;;;;;11.02;69.39;98110.91;4826561;29;19969;-66
2022/03/04 11:21:45;;;;;;;;;;;;;;;11.03;71.38;98110.47;4826082;29;19958;-67
2022/03/04 11:24:13;;;;;;;;;;;;;;;10.79;68.16;98119.75;4826214;29;19958;-67
2022/03/04 11:26:43;;;;;;;;;;;;;;;10.74;71.90;98108.97;4826432;29;20262;-66
2022/03/04 11:29:30;;;;;;;;;;;;;;;10.88;69.32;98102.56;4825523;29;20263;-67
2022/03/04 11:31:58;;;;;;;;;;;;;;;10.98;64.92;98110.13;4826281;29;19964;-67
2022/03/04 11:34:32;;;;;;;;;;;;;;;10.64;64.57;98097.84;4824571;29;20345;-67
2022/03/04 11:37:01;;;;;;;;;;;;;;;11.09;66.30;98097.69;4825816;29;19954;-67
2022/03/04 11:39:28;;;;;;;;;;;;;;;10.64;73.16;98095.03;4825881;29;19961;-67
2022/03/04 11:41:55;;;;;;;;;;;;;;;10.54;74.50;98093.84;4816898;29;19953;-67
2022/03/04 11:44:23;;;;;;;;;;;;;;;10.42;69.46;98097.06;4843098;29;19958;-67
2022/03/04 11:47:02;;;;;;;;;;;;;;;10.40;68.82;98094.66;4844818;29;19954;-67
2022/03/04 11:49:34;;;;;;;;;;;;;;;10.53;70.61;98093.06;4838251;29;19956;-67
2022/03/04 11:52:07;;;;;;;;;;;;;;;10.85;71.64;98087.38;4827055;29;19950;-68
2022/03/04 11:54:37;;;;;;;;;;;;;;;10.76;69.43;98078.59;4823219;29;20459;-67
2022/03/04 11:57:14;;;;;;;;;;;;;;;10.86;73.08;98080.56;4840279;29;19954;-67
2022/03/04 11:59:54;;;;;;;;;;;;;;;10.84;67.97;98091.38;4824572;29;19951;-67
2022/03/04 12:02:26;;;;;;;;;;;;;;;10.94;69.55;98073.75;4825574;29;19953;-67
2022/03/04 12:05:12;;;;;;;;;;;;;;;10.70;66.99;98083.03;4825252;29;19948;-67
2022/03/04 12:07:46;;;;;;;;;;;;;;;10.98;66.93;98068.16;4825909;29;20528;-67
2022/03/04 12:10:14;;;;;;;;;;;;;;;11.13;66.75;98069.66;4826115;29;19948;-67
2022/03/04 12:13:00;;;;;;;;;;;;;;;10.88;65.29;98069.75;4826333;29;19956;-67
2022/03/04 12:15:29;;;;;;;;;;;;;;;10.93;68.95;98062.97;4812879;29;19956;-67
2022/03/04 12:17:59;;;;;;;;;;;;;;;11.04;70.66;98058.13;4825591;29;20425;-67
2022/03/04 12:20:27;;;;;;;;;;;;;;;10.78;69.30;98067.03;4825912;29;19985;-67
2022/03/04 12:22:58;;;;;;;;;;;;;;;10.60;68.24;98055.88;4825734;29;19959;-67
2022/03/04 12:25:54;;;;;;;;;;;;;;;10.54;68.97;98058.28;4826005;29;20063;-67
2022/03/04 12:28:31;;;;;;;;;;;;;;;10.52;70.53;98049.53;4825252;29;19952;-67
2022/03/04 12:31:00;;;;;;;;;;;;;;;10.55;70.41;98048.72;4826027;29;19951;-66
2022/03/04 12:33:30;;;;;;;;;;;;;;;10.51;70.29;98041.53;4826194;29;19965;-67
2022/03/04 12:35:58;;;;;;;;;;;;;;;10.54;69.60;98040.72;4837372;29;20252;-67
2022/03/04 12:38:29;;;;;;;;;;;;;;;10.58;68.44;98038.72;4843736;29;19957;-67
2022/03/04 12:40:57;;;;;;;;;;;;;;;10.39;68.78;98030.78;4844169;29;19979;-67
2022/03/04 12:43:25;;;;;;;;;;;;;;;10.55;67.73;98033.94;4844859;29;19947;-67
2022/03/04 12:45:54;;;;;;;;;;;;;;;10.48;70.29;98028.38;4844144;29;19957;-67
2022/03/04 12:48:24;;;;;;;;;;;;;;;10.84;71.52;98026.22;4843674;29;20331;-67
2022/03/04 12:50:51;;;;;;;;;;;;;;;10.63;68.27;98023.53;4828736;29;19953;-67
2022/03/04 12:53:20;;;;;;;;;;;;;;;10.60;68.94;98024.31;4823366;29;19950;-67
2022/03/04 12:55:51;;;;;;;;;;;;;;;10.73;64.03;98031.88;4825708;29;19959;-67
2022/03/04 12:58:35;;;;;;;;;;;;;;;10.83;69.81;98025.44;4824890;29;19962;-67
2022/03/04 13:01:03;;;;;;;;;;;;;;;10.84;66.84;98027.03;4825444;29;20232;-67
2022/03/04 13:03:31;;;;;;;;;;;;;;;11.01;70.48;98019.75;4825360;29;19955;-67
2022/03/04 13:05:59;;;;;;;;;;;;;;;11.06;67.75;98025.72;4824647;29;19960;-67
2022/03/04 13:08:26;;;;;;;;;;;;;;;10.81;66.98;98013.84;4821553;29;19952;-67
2022/03/04 13:10:54;;;;;;;;;;;;;;;10.82;70.39;98012.66;4822752;29;19950;-67
2022/03/04 13:13:22;;;;;;;;;;;;;;;10.61;69.64;98001.56;4822769;29;19956;-67
2022/03/04 13:15:51;;;;;;;;;;;;;;;10.58;70.58;98002.38;4810966;29;20333;-67
2022/03/04 13:18:21;;;;;;;;;;;;;;;10.80;72.70;98011.47;4828093;29;19956;-67
2022/03/04 13:21:05;;;;;;;;;;;;;;;10.72;70.50;98009.91;4829627;29;19968;-68
2022/03/04 13:23:33;;;;;;;;;;;;;;;10.64;69.97;97997.16;4828574;29;19965;-67
2022/03/04 13:26:03;;;;;;;;;;;;;;;10.76;67.53;98005.09;4822141;29;19970;-67
2022/03/04 13:28:49;;;;;;;;;;;;;;;10.89;69.14;97998.63;4822170;29;20252;-67
2022/03/04 13:31:20;;;;;;;;;;;;;;;10.70;64.40;97996.34;4826589;29;19966;-67
2022/03/04 13:33:48;;;;;;;;;;;;;;;10.68;65.09;98000.75;4813154;29;20368;-67
2022/03/04 13:36:52;;;;;;;;;;;;;;;10.43;65.57;97992.44;4807527;29;20370;-81
2022/03/04 13:39:33;;;;;;;;;;;;;;;10.61;69.78;97984.81;4827414;29;19960;-68
2022/03/04 13:42:35;;;;;;;;;;;;;;;10.46;67.05;97991.63;4828123;29;19968;-69
2022/03/04 13:45:06;;;;;;;;;;;;;;;10.35;64.92;97991.66;4753807;30;19953;-70
2022/03/04 13:47:34;;;;;;;;;;;;;;;10.49;65.26;97996.41;4815070;29;19959;-69
2022/03/04 13:50:04;;;;;;;;;;;;;;;10.62;66.93;97986.38;4826373;29;20374;-69
2022/03/04 13:52:54;;;;;;;;;;;;;;;10.57;66.67;97986.78;4822808;29;19981;-67
2022/03/04 13:55:40;;;;;;;;;;;;;;;10.57;69.09;97984.00;4825264;29;19955;-67
2022/03/04 13:58:24;;;;;;;;;;;;;;;10.61;66.69;97979.22;4829677;29;19952;-67
2022/03/04 14:00:53;;;;;;;;;;;;;;;10.81;66.32;97988.69;4828207;29;19972;-67
2022/03/04 14:03:26;;;;;;;;;;;;;;;10.47;68.97;97979.25;4830570;29;19959;-67
2022/03/04 14:05:57;;;;;;;;;;;;;;;10.54;70.10;97982.00;4833956;29;20254;-67
2022/03/04 14:08:25;;;;;;;;;;;;;;;10.46;68.92;97975.66;4828111;29;20195;-67
2022/03/04 14:10:53;;;;;;;;;;;;;;;10.42;70.58;97979.66;4825219;29;20339;-67
2022/03/04 14:13:21;;;;;;;;;;;;;;;10.28;70.75;97980.50;4827246;29;19959;-67
2022/03/04 14:15:50;;;;;;;;;;;;;;;10.16;68.50;97969.75;4827743;29;19981;-67
2022/03/04 14:18:18;;;;;;;;;;;;;;;10.32;67.38;97980.50;4836090;29;19957;-67
2022/03/04 14:20:47;;;;;;;;;;;;;;;10.24;68.33;97976.13;4834314;29;19954;-67
2022/03/04 14:23:15;;;;;;;;;;;;;;;10.31;68.96;97971.31;4827640;29;20252;-67
2022/03/04 14:25:43;;;;;;;;;;;;;;;10.41;66.62;97980.88;4827756;29;19979;-67
2022/03/04 14:28:11;;;;;;;;;;;;;;;10.19;64.89;97974.56;4826025;29;19951;-67
2022/03/04 14:30:40;;;;;;;;;;;;;;;10.11;67.96;97969.34;4828281;29;19981;-67
2022/03/04 14:33:09;;;;;;;;;;;;;;;10.17;66.71;97976.16;4824434;29;20513;-67
2022/03/04 14:35:41;;;;;;;;;;;;;;;9.99;65.66;97967.78;4827146;29;19950;-67
2022/03/04 14:38:08;;;;;;;;;;;;;;;10.03;65.08;97970.53;4824687;29;19963;-67
2022/03/04 14:40:38;;;;;;;;;;;;;;;10.15;64.43;97967.38;4827707;29;19957;-67
2022/03/04 14:43:05;;;;;;;;;;;;;;;10.16;60.66;97963.38;4827500;29;19972;-67
2022/03/04 14:45:34;;;;;;;;;;;;;;;10.09;57.91;97972.56;4827398;29;20340;-67
2022/03/04 14:48:02;;;;;;;;;;;;;;;10.02;60.55;97966.97;4823370;29;19974;-67
2022/03/04 14:50:33;;;;;;;;;;;;;;;10.02;62.30;97971.75;4827174;29;19956;-67
2022/03/04 14:53:01;;;;;;;;;;;;;;;10.16;59.84;97971.75;4827367;29;19949;-67
2022/03/04 14:55:29;;;;;;;;;;;;;;;10.08;63.53;97964.56;4826685;29;19948;-67
2022/03/04 14:57:59;;;;;;;;;;;;;;;10.14;62.89;97966.59;4826507;29;20606;-67
2022/03/04 15:00:26;;;;;;;;;;;;;;;9.95;64.93;97957.81;4816938;29;19958;-67
2022/03/04 15:02:54;;;;;;;;;;;;;;;9.81;65.13;97955.81;4827512;29;20258;-67
2022/03/04 15:05:21;;;;;;;;;;;;;;;9.78;66.32;97959.44;4824779;29;19954;-67
2022/03/04 15:07:50;;;;;;;;;;;;;;;9.72;66.59;97952.66;4826331;29;19951;-67
2022/03/04 15:10:18;;;;;;;;;;;;;;;9.72;67.39;97956.25;4826758;29;19962;-67
2022/03/04 15:12:46;;;;;;;;;;;;;;;9.76;66.76;97959.03;4826802;29;19990;-67
2022/03/04 15:15:17;;;;;;;;;;;;;;;9.69;65.53;97961.81;4826110;29;20252;-67
2022/03/04 15:17:46;;;;;;;;;;;;;;;9.70;65.59;97950.28;4826778;29;19957;-67
2022/03/04 15:20:13;;;;;;;;;;;;;;;9.75;66.28;97940.69;4826985;29;19950;-67
2022/03/04 15:22:42;;;;;;;;;;;;;;;9.70;68.48;97947.47;4826945;29;20397;-67
2022/03/04 15:25:09;;;;;;;;;;;;;;;9.69;70.58;97947.88;4827403;29;19969;-67
2022/03/04 15:27:37;;;;;;;;;;;;;;;9.72;71.15;97947.88;4826551;29;19953;-67
2022/03/04 15:30:05;;;;;;;;;;;;;;;9.72;70.71;97950.66;4826105;29;19967;-67
2022/03/04 15:32:33;;;;;;;;;;;;;;;9.71;70.84;97951.84;4826834;29;19956;-67
2022/03/04 15:35:00;;;;;;;;;;;;;;;9.75;66.27;97952.66;4827001;29;19956;-67
2022/03/04 15:37:30;;;;;;;;;;;;;;;9.73;64.63;97949.44;4810686;29;19953;-67
2022/03/04 15:39:57;;;;;;;;;;;;;;;9.58;63.54;97956.28;4826412;29;19959;-67
2022/03/04 15:42:25;;;;;;;;;;;;;;;9.41;61.99;97951.50;4826258;29;19974;-67
2022/03/04 15:44:55;;;;;;;;;;;;;;;9.45;61.89;97960.66;4826382;29;20247;-67
2022/03/04 15:47:23;;;;;;;;;;;;;;;9.58;61.76;97958.25;4825723;29;19952;-67
2022/03/04 15:49:51;;;;;;;;;;;;;;;9.43;63.85;97954.66;4821151;29;19959;-67
2022/03/04 15:52:18;;;;;;;;;;;;;;;9.34;65.15;97957.03;4826350;29;19951;-67
2022/03/04 15:54:45;;;;;;;;;;;;;;;9.26;64.99;97963.84;4811037;29;19964;-67
2022/03/04 15:57:13;;;;;;;;;;;;;;;9.35;63.93;97957.84;4826700;29;20353;-67
2022/03/04 15:59:41;;;;;;;;;;;;;;;9.28;64.38;97964.22;4826096;29;19961;-67
2022/03/04 16:02:09;;;;;;;;;;;;;;;9.22;65.16;97963.81;4825280;29;19993;-67
2022/03/04 16:04:38;;;;;;;;;;;;;;;9.08;66.05;97968.56;4824077;29;20749;-67
2022/03/04 16:07:05;;;;;;;;;;;;;;;9.10;67.32;97968.97;4824847;29;19952;-67
2022/03/04 16:09:32;;;;;;;;;;;;;;;9.06;67.64;97969.00;4825929;29;19953;-67
2022/03/04 16:12:02;;;;;;;;;;;;;;;9.03;68.83;97980.13;4825814;29;19959;-67
2022/03/04 16:14:44;;;;;;;;;;;;;;;8.98;69.23;97983.28;4805057;29;19953;-67
2022/03/04 16:17:11;;;;;;;;;;;;;;;8.97;68.17;97984.50;4824361;29;19964;-67
2022/03/04 16:19:39;;;;;;;;;;;;;;;8.87;69.20;97979.69;4825978;29;20458;-67
2022/03/04 16:22:06;;;;;;;;;;;;;;;8.83;68.75;97981.66;4826560;29;19967;-67
2022/03/04 16:24:35;;;;;;;;;;;;;;;8.97;68.10;97982.53;4815214;29;20351;-67
2022/03/04 16:27:02;;;;;;;;;;;;;;;8.93;69.26;97984.47;4825057;29;19951;-67
2022/03/04 16:29:29;;;;;;;;;;;;;;;8.93;69.83;97983.69;4825199;29;19954;-67
2022/03/04 16:31:57;;;;;;;;;;;;;;;8.85;69.87;97985.66;4825506;29;20600;-67
2022/03/04 16:34:25;;;;;;;;;;;;;;;8.68;70.90;97991.19;4825809;29;20341;-67
2022/03/04 16:36:52;;;;;;;;;;;;;;;8.70;71.40;97986.81;4826329;29;20252;-67
2022/03/04 16:39:20;;;;;;;;;;;;;;;8.57;72.17;97978.00;4825487;29;19956;-67
2022/03/04 16:41:49;;;;;;;;;;;;;;;8.56;71.51;97981.97;4824043;29;19949;-67
2022/03/04 16:44:16;;;;;;;;;;;;;;;8.57;72.07;97983.59;4826295;29;19951;-67
2022/03/04 16:46:44;;;;;;;;;;;;;;;8.56;72.44;97981.97;4820732;29;19948;-67
2022/03/04 16:49:26;;;;;;;;;;;;;;;8.50;72.96;97983.56;4819254;29;19960;-67
2022/03/04 16:51:54;;;;;;;;;;;;;;;8.51;73.89;97985.13;4825433;29;20337;-67
2022/03/04 16:54:22;;;;;;;;;;;;;;;8.54;73.37;97992.72;4807730;29;20374;-67
2022/03/04 16:56:50;;;;;;;;;;;;;;;8.48;74.43;97990.72;4823864;29;19961;-67
2022/03/04 16:59:17;;;;;;;;;;;;;;;8.34;75.72;97996.19;4824547;29;19959;-66
2022/03/04 17:02:00;;;;;;;;;;;;;;;8.23;76.93;97989.75;4825008;29;19963;-67
2022/03/04 17:04:29;;;;;;;;;;;;;;;8.16;77.87;97995.28;4827203;29;19966;-67
2022/03/04 17:06:56;;;;;;;;;;;;;;;8.14;77.91;98000.44;4826451;29;19951;-67
2022/03/04 17:09:23;;;;;;;;;;;;;;;8.21;77.35;98004.09;4826317;29;20349;-67
2022/03/04 17:11:51;;;;;;;;;;;;;;;8.06;78.38;98002.41;4827173;29;19959;-67
2022/03/04 17:14:18;;;;;;;;;;;;;;;8.03;79.53;98002.34;4827232;29;19965;-67
2022/03/04 17:16:45;;;;;;;;;;;;;;;8.05;79.38;98011.94;4825898;29;19952;-67
2022/03/04 17:19:13;;;;;;;;;;;;;;;7.88;80.27;98012.59;4830053;29;19955;-66
2022/03/04 17:21:40;;;;;;;;;;;;;;;7.89;80.44;98020.59;4826431;29;19981;-67
2022/03/04 17:24:10;;;;;;;;;;;;;;;7.86;80.99;98015.78;4825611;29;19975;-66
2022/03/04 17:26:38;;;;;;;;;;;;;;;7.83;81.32;98026.88;4824356;29;19982;-66
2022/03/04 17:29:05;;;;;;;;;;;;;;;7.79;81.81;98026.06;4827167;29;19959;-67
2022/03/04 17:31:32;;;;;;;;;;;;;;;7.76;83.13;98033.19;4825548;29;19956;-67
2022/03/04 17:34:01;;;;;;;;;;;;;;;7.65;83.76;98034.31;4825728;29;20290;-67
2022/03/04 17:36:29;;;;;;;;;;;;;;;7.57;84.38;98033.44;4826288;29;19958;-67
2022/03/04 17:38:57;;;;;;;;;;;;;;;7.56;85.11;98040.19;4822592;29;19955;-68
2022/03/04 17:41:25;;;;;;;;;;;;;;;7.47;85.77;98041.69;4822866;29;19947;-69
2022/03/04 17:43:53;;;;;;;;;;;;;;;7.40;87.09;98047.19;4823783;29;19966;-68
2022/03/04 17:46:22;;;;;;;;;;;;;;;7.39;87.48;98046.38;4824367;29;19962;-68
2022/03/04 17:48:53;;;;;;;;;;;;;;;7.45;87.72;98049.63;4823414;29;19957;-67
2022/03/04 17:51:21;;;;;;;;;;;;;;;7.43;88.18;98057.56;4824968;29;20384;-68
2022/03/04 17:53:49;;;;;;;;;;;;;;;7.41;88.28;98054.38;4824567;29;20225;-68
2022/03/04 17:56:16;;;;;;;;;;;;;;;7.37;88.55;98061.84;4823504;29;19977;-68
2022/03/04 17:58:44;;;;;;;;;;;;;;;7.32;88.81;98059.41;4826085;29;19952;-68
2022/03/04 18:01:11;;;;;;;;;;;;;;;7.31;89.26;98063.41;4827260;29;19959;-68
2022/03/04 18:03:38;;;;;;;;;;;;;;;7.28;90.07;98084.44;4827320;29;19977;-68
2022/03/04 18:06:06;;;;;;;;;;;;;;;7.22;90.35;98083.16;4828107;29;19953;-68
2022/03/04 18:08:33;;;;;;;;;;;;;;;7.27;90.40;98091.97;4827122;29;19957;-69
2022/03/04 18:11:01;;;;;;;;;;;;;;;7.23;89.96;98093.13;4826395;29;19948;-69
2022/03/04 18:13:28;;;;;;;;;;;;;;;7.17;90.32;98095.44;4825117;29;19983;-68
2022/03/04 18:15:56;;;;;;;;;;;;;;;7.12;91.04;98094.97;4827483;29;19959;-68
2022/03/04 18:18:23;;;;;;;;;;;;;;;7.09;90.70;98099.31;4827313;29;19952;-67
2022/03/04 18:20:51;;;;;;;;;;;;;;;7.06;90.46;98102.06;4827629;29;20286;-68
2022/03/04 18:23:18;;;;;;;;;;;;;;;7.02;90.54;98112.31;4825893;29;19964;-67
2022/03/04 18:25:55;;;;;;;;;;;;;;;7.05;90.60;98109.59;4825750;29;20287;-68
2022/03/04 18:28:22;;;;;;;;;;;;;;;6.92;91.75;98108.22;4826932;29;20383;-68
2022/03/04 18:30:50;;;;;;;;;;;;;;;6.89;92.25;98110.97;4825867;29;19952;-68
2022/03/04 18:33:17;;;;;;;;;;;;;;;6.89;92.62;98110.97;4827068;29;19962;-68
2022/03/04 18:35:45;;;;;;;;;;;;;;;6.84;92.48;98114.09;4825343;29;19952;-68
2022/03/04 18:40:58;;;;;;;;;;;;;;;6.68;94.55;98127.34;4825355;29;19962;-69
2022/03/04 18:43:29;;;;;;;;;;;;;;;6.76;93.10;98129.88;4827068;29;19964;-68
2022/03/04 18:45:57;;;;;;;;;;;;;;;6.69;92.60;98138.13;4825981;29;19970;-69
2022/03/04 18:48:25;;;;;;;;;;;;;;;6.73;92.00;98138.94;4825396;29;19961;-68
2022/03/04 18:50:52;;;;;;;;;;;;;;;6.77;90.74;98144.56;4824775;29;19959;-69
2022/03/04 18:53:20;;;;;;;;;;;;;;;6.67;92.51;98145.22;4826648;29;20267;-70
2022/03/04 18:55:49;;;;;;;;;;;;;;;6.76;92.00;98140.19;4826486;29;19956;-68
2022/03/04 18:58:16;;;;;;;;;;;;;;;6.70;92.90;98152.81;4825006;29;19956;-66
2022/03/04 19:00:44;;;;;;;;;;;;;;;6.61;92.85;98147.53;4831148;29;20249;-67
2022/03/04 19:03:11;;;;;;;;;;;;;;;6.67;91.15;98142.44;4824128;29;19976;-67
2022/03/04 19:05:40;;;;;;;;;;;;;;;6.65;90.72;98142.03;4823211;29;19955;-66
2022/03/04 19:08:08;;;;;;;;;;;;;;;6.58;91.06;98145.47;4827292;29;19965;-66
2022/03/04 19:10:35;;;;;;;;;;;;;;;6.58;94.19;98145.47;4825857;29;19954;-66
2022/03/04 19:13:03;;;;;;;;;;;;;;;6.57;92.89;98150.25;4825997;29;19956;-66
2022/03/04 19:15:30;;;;;;;;;;;;;;;6.52;93.04;98152.56;4826234;29;19957;-66
2022/03/04 19:17:58;;;;;;;;;;;;;;;6.46;95.30;98154.03;4827130;29;19957;-66
2022/03/04 19:20:26;;;;;;;;;;;;;;;6.46;95.48;98159.59;4824372;29;19953;-64
2022/03/04 19:22:56;;;;;;;;;;;;;;;6.44;96.06;98161.94;4826714;29;19957;-66
2022/03/04 19:25:26;;;;;;;;;;;;;;;6.44;96.40;98167.50;4826876;29;19982;-67
2022/03/04 19:27:55;;;;;;;;;;;;;;;6.41;96.38;98171.03;4823674;29;20366;-67
2022/03/04 19:30:24;;;;;;;;;;;;;;;6.44;95.53;98175.84;4826583;29;19969;-67